createdAt,value
2022-11-24T00:01:31.621Z,99996.98
2022-11-24T00:04:03.771Z,99993.41
2022-11-24T00:06:35.278Z,99998.77
2022-11-24T00:09:06.156Z,99994.65
2022-11-24T00:11:37.085Z,99989.53
2022-11-24T00:14:07.186Z,99991.41
2022-11-24T00:16:38.106Z,99996.42
2022-11-24T00:19:09.852Z,100007.98
2022-11-24T00:21:39.144Z,100012.30
2022-11-24T00:24:07.855Z,100004.72
2022-11-24T00:26:39.876Z,100009.98
2022-11-24T00:29:11.875Z,100009.67
2022-11-24T00:31:43.321Z,100007.73
2022-11-24T00:34:14.950Z,100006.42
2022-11-24T00:36:43.656Z,100002.48
2022-11-24T00:39:14.863Z,100005.35
2022-11-24T00:41:44.601Z,100015.78
2022-11-24T00:44:13.798Z,100024.13
2022-11-24T00:46:42.662Z,100028.98
2022-11-24T00:49:12.092Z,100025.85
2022-11-24T00:51:40.886Z,100029.34
2022-11-24T00:54:09.772Z,100031.79
2022-11-24T00:56:38.571Z,100031.98
2022-11-24T00:59:07.460Z,100028.70
2022-11-24T01:01:36.897Z,100027.98
2022-11-24T01:04:06.258Z,100028.80
2022-11-24T01:06:36.689Z,100040.00
2022-11-24T01:09:05.380Z,100046.02
2022-11-24T01:11:55.063Z,100041.20
2022-11-24T01:14:25.519Z,100028.02
2022-11-24T01:16:55.295Z,100012.75
2022-11-24T01:19:24.641Z,100014.29
2022-11-24T01:21:53.714Z,100019.84
2022-11-24T01:24:22.588Z,100018.23
2022-11-24T01:26:51.475Z,100016.66
2022-11-24T01:29:20.257Z,100017.77
2022-11-24T01:31:49.081Z,100013.13
2022-11-24T01:34:18.047Z,100007.09
2022-11-24T01:36:46.843Z,100003.09
2022-11-24T01:39:15.823Z,100009.45
2022-11-24T01:41:44.725Z,100012.33
2022-11-24T01:44:27.192Z,100011.48
2022-11-24T01:46:59.410Z,100008.94
2022-11-24T01:49:47.386Z,100011.33
2022-11-24T01:52:33.117Z,100011.16
2022-11-24T01:55:08.610Z,100011.83
2022-11-24T01:57:46.540Z,100015.81
2022-11-24T02:00:17.165Z,100020.61
2022-11-24T02:02:46.450Z,100021.52
2022-11-24T02:05:34.760Z,100015.13
2022-11-24T02:08:04.435Z,100026.65
2022-11-24T02:10:33.765Z,100031.52
2022-11-24T02:13:03.165Z,100034.55
2022-11-24T02:15:32.852Z,100030.45
2022-11-24T02:18:01.670Z,100029.73
2022-11-24T02:20:30.974Z,100029.82
2022-11-24T02:23:37.949Z,100031.27
2022-11-24T02:26:43.115Z,100035.42
2022-11-24T02:29:14.205Z,100032.27
2022-11-24T02:31:53.173Z,100024.01
2022-11-24T02:34:22.132Z,100018.23
2022-11-24T02:36:51.048Z,100021.05
2022-11-24T02:39:20.232Z,100025.30
2022-11-24T02:41:59.386Z,100031.47
2022-11-24T02:44:44.975Z,100032.74
2022-11-24T02:47:14.180Z,100032.09
2022-11-24T02:49:42.884Z,100038.18
2022-11-24T02:52:11.747Z,100035.39
2022-11-24T02:54:40.540Z,100024.88
2022-11-24T02:57:10.206Z,100025.13
2022-11-24T02:59:39.128Z,100034.55
2022-11-24T03:02:07.824Z,100043.27
2022-11-24T03:04:36.755Z,100043.79
2022-11-24T03:07:05.715Z,100049.51
2022-11-24T03:09:34.800Z,100048.66
2022-11-24T03:12:03.492Z,100048.19
2022-11-24T03:14:32.896Z,100040.29
2022-11-24T03:17:04.248Z,100040.60
2022-11-24T03:19:33.551Z,100041.58
2022-11-24T03:22:02.436Z,100040.45
2022-11-24T03:24:31.421Z,100048.27
2022-11-24T03:27:00.355Z,100056.76
2022-11-24T03:29:29.417Z,100051.47
2022-11-24T03:31:59.339Z,100054.16
2022-11-24T03:34:28.016Z,100050.71
2022-11-24T03:36:57.233Z,100047.64
2022-11-24T03:39:26.105Z,100045.70
2022-11-24T03:41:55.006Z,100044.70
2022-11-24T03:44:23.895Z,100045.95
2022-11-24T03:46:52.789Z,100048.07
2022-11-24T03:49:21.568Z,100057.98
2022-11-24T03:51:50.385Z,100070.48
2022-11-24T03:54:19.253Z,100071.63
2022-11-24T03:56:48.248Z,100071.77
2022-11-24T03:59:17.351Z,100073.30
2022-11-24T04:01:46.286Z,100068.64
2022-11-24T04:04:15.336Z,100075.30
2022-11-24T04:06:44.015Z,100078.19
2022-11-24T04:09:12.924Z,100089.05
2022-11-24T04:12:00.136Z,100093.69
2022-11-24T04:14:29.029Z,100089.17
2022-11-24T04:16:58.025Z,100091.14
2022-11-24T04:19:26.911Z,100087.94
2022-11-24T04:21:55.706Z,100087.02
2022-11-24T04:24:24.595Z,100085.33
2022-11-24T04:26:53.486Z,100085.36
2022-11-24T04:29:22.377Z,100090.89
2022-11-24T04:31:51.252Z,100089.20
2022-11-24T04:34:20.267Z,100091.13
2022-11-24T04:36:49.048Z,100089.02
2022-11-24T04:39:23.159Z,100089.49
2022-11-24T04:41:55.016Z,100096.04
2022-11-24T04:44:23.818Z,100104.28
2022-11-24T04:46:52.848Z,100103.08
2022-11-24T04:49:21.914Z,100105.16
2022-11-24T04:51:50.805Z,100107.80
2022-11-24T04:54:19.603Z,100108.93
2022-11-24T04:56:52.124Z,100108.85
2022-11-24T04:59:21.070Z,100108.31
2022-11-24T05:01:50.151Z,100103.70
2022-11-24T05:04:20.742Z,100109.21
2022-11-24T05:06:49.567Z,100118.48
2022-11-24T05:09:18.572Z,100120.24
2022-11-24T05:11:47.567Z,100129.26
2022-11-24T05:14:16.353Z,100127.48
2022-11-24T05:16:45.241Z,100128.91
2022-11-24T05:19:14.434Z,100130.76
2022-11-24T05:21:43.258Z,100131.10
2022-11-24T05:24:12.425Z,100133.87
2022-11-24T05:26:41.323Z,100137.64
2022-11-24T05:29:10.212Z,100143.98
2022-11-24T05:31:39.290Z,100145.97
2022-11-24T05:34:08.230Z,100149.81
2022-11-24T05:36:55.109Z,100148.37
2022-11-24T05:39:24.213Z,100144.55
2022-11-24T05:41:53.338Z,100145.14
2022-11-24T05:44:22.091Z,100149.49
2022-11-24T05:46:51.345Z,100155.44
2022-11-24T05:49:20.194Z,100162.05
2022-11-24T05:51:48.972Z,100162.16
2022-11-24T05:54:18.167Z,100163.45
2022-11-24T05:56:46.963Z,100164.12
2022-11-24T05:59:15.745Z,100168.45
2022-11-24T06:01:44.570Z,100172.45
2022-11-24T06:04:13.740Z,100175.08
2022-11-24T06:06:42.623Z,100179.45
2022-11-24T06:09:11.527Z,100185.99
2022-11-24T06:11:40.517Z,100196.09
2022-11-24T06:14:11.542Z,100203.25
2022-11-24T06:16:40.767Z,100205.27
2022-11-24T06:19:13.032Z,100204.85
2022-11-24T06:21:41.719Z,100208.27
2022-11-24T06:24:10.711Z,100205.48
2022-11-24T06:26:39.388Z,100204.58
2022-11-24T06:29:08.490Z,100209.08
2022-11-24T06:31:37.424Z,100208.83
2022-11-24T06:34:08.638Z,100211.95
2022-11-24T06:36:39.056Z,100219.23
2022-11-24T06:39:08.655Z,100222.94
2022-11-24T06:41:37.447Z,100226.36
2022-11-24T06:44:06.453Z,100226.02
2022-11-24T06:46:35.271Z,100226.21
2022-11-24T06:49:04.176Z,100231.46
2022-11-24T06:51:33.322Z,100234.27
2022-11-24T06:54:02.311Z,100228.75
2022-11-24T06:56:31.002Z,100227.15
2022-11-24T06:58:59.892Z,100232.34
2022-11-24T07:01:30.442Z,100231.94
2022-11-24T07:03:59.669Z,100233.79
2022-11-24T07:06:28.817Z,100229.40
2022-11-24T07:08:57.614Z,100234.09
2022-11-24T07:11:26.420Z,100233.99
2022-11-24T07:13:59.859Z,100237.23
2022-11-24T07:16:29.859Z,100239.90
2022-11-24T07:18:59.705Z,100236.95
2022-11-24T07:21:30.840Z,100239.53
2022-11-24T07:23:59.771Z,100234.33
2022-11-24T07:26:28.663Z,100238.48
2022-11-24T07:28:57.549Z,100240.74
2022-11-24T07:31:26.508Z,100236.67
2022-11-24T07:33:56.279Z,100239.77
2022-11-24T07:36:25.461Z,100239.40
2022-11-24T07:38:54.353Z,100247.73
2022-11-24T07:41:23.388Z,100250.98
2022-11-24T07:43:52.338Z,100247.23
2022-11-24T07:46:21.607Z,100245.95
2022-11-24T07:48:50.639Z,100247.59
2022-11-24T07:51:19.518Z,100251.77
2022-11-24T07:53:48.561Z,100254.76
2022-11-24T07:56:17.414Z,100259.20
2022-11-24T07:58:51.365Z,100265.09
2022-11-24T08:01:21.956Z,100272.65
2022-11-24T08:03:51.231Z,100269.28
2022-11-24T08:06:27.688Z,100276.02
2022-11-24T08:08:58.480Z,100273.65
2022-11-24T08:11:28.340Z,100276.55
2022-11-24T08:13:57.398Z,100278.52
2022-11-24T08:16:26.093Z,100277.33
2022-11-24T08:18:56.526Z,100278.27
2022-11-24T08:21:25.796Z,100277.43
2022-11-24T08:23:57.126Z,100277.42
2022-11-24T08:26:26.720Z,100282.86
2022-11-24T08:28:59.367Z,100282.91
2022-11-24T08:31:34.101Z,100280.20
2022-11-24T08:34:04.575Z,100281.77
2022-11-24T08:36:34.391Z,100288.98
2022-11-24T08:39:03.893Z,100289.63
2022-11-24T08:41:33.711Z,100290.98
2022-11-24T08:44:02.386Z,100291.30
2022-11-24T08:46:31.388Z,100291.06
2022-11-24T08:49:00.376Z,100293.89
2022-11-24T08:51:30.095Z,100293.23
2022-11-24T08:54:01.731Z,100292.90
2022-11-24T08:56:33.258Z,100294.47
2022-11-24T08:59:03.197Z,100288.66
2022-11-24T09:01:32.530Z,100287.83
2022-11-24T09:04:01.361Z,100291.08
2022-11-24T09:06:33.171Z,100291.38
2022-11-24T09:09:02.891Z,100298.16
2022-11-24T09:11:34.508Z,100294.78
2022-11-24T09:14:03.623Z,100296.94
2022-11-24T09:16:32.548Z,100295.75
2022-11-24T09:19:08.386Z,100294.87
2022-11-24T09:21:39.212Z,100295.29
2022-11-24T09:24:09.028Z,100295.57
2022-11-24T09:26:43.108Z,100295.77
2022-11-24T09:29:14.183Z,100297.91
2022-11-24T09:31:42.979Z,100306.09
2022-11-24T09:34:15.773Z,100306.71
2022-11-24T09:36:44.541Z,100306.70
2022-11-24T09:39:13.943Z,100306.98
2022-11-24T09:42:48.043Z,100306.49
2022-11-24T09:46:07.678Z,100309.89
2022-11-24T09:48:42.194Z,100306.45
2022-11-24T09:51:14.530Z,100311.46
2022-11-24T09:53:55.134Z,100311.55
2022-11-24T09:56:28.719Z,100314.13
2022-11-24T09:58:57.396Z,100310.63
2022-11-24T10:01:33.350Z,100310.32
2022-11-24T10:04:06.459Z,100310.66
2022-11-24T10:06:35.551Z,100306.73
2022-11-24T10:09:29.210Z,100303.25
2022-11-24T10:12:13.274Z,100302.22
2022-11-24T10:15:12.514Z,100305.70
2022-11-24T10:18:05.220Z,100308.52
2022-11-24T10:20:51.936Z,100315.09
2022-11-24T10:24:07.006Z,100314.84
2022-11-24T10:26:39.211Z,100313.80
2022-11-24T10:29:37.053Z,100310.59
2022-11-24T10:32:22.745Z,100309.16
2022-11-24T10:34:51.724Z,100311.39
2022-11-24T10:37:40.984Z,100307.61
2022-11-24T10:40:55.931Z,100306.93
2022-11-24T10:43:22.701Z,100306.17
2022-11-24T10:45:51.744Z,100311.31
2022-11-24T10:48:27.726Z,100316.93
2022-11-24T10:51:34.029Z,100314.27
2022-11-24T10:54:18.510Z,100312.32
2022-11-24T10:56:51.051Z,100311.37
2022-11-24T10:59:40.649Z,100313.52
2022-11-24T11:02:39.623Z,100306.85
2022-11-24T11:05:43.957Z,100299.79
2022-11-24T11:08:25.562Z,100296.60
2022-11-24T11:11:18.402Z,100303.79
2022-11-24T11:14:03.322Z,100298.02
2022-11-24T11:16:41.696Z,100290.83
2022-11-24T11:20:00.064Z,100291.25
2022-11-24T11:22:36.315Z,100294.61
2022-11-24T11:25:11.234Z,100292.02
2022-11-24T11:27:42.164Z,100289.07
2022-11-24T11:36:25.650Z,100291.41
2022-11-24T11:38:54.845Z,100290.85
2022-11-24T11:41:34.181Z,100289.36
2022-11-24T11:44:32.042Z,100288.77
2022-11-24T11:47:08.942Z,100298.00
2022-11-24T11:49:39.672Z,100300.88
2022-11-24T11:52:45.112Z,100302.99
2022-11-24T11:55:19.628Z,100306.34
2022-11-24T11:58:31.851Z,100310.33
2022-11-24T12:01:26.644Z,100309.28
2022-11-24T12:04:10.715Z,100310.59
2022-11-24T12:07:22.856Z,100312.09
2022-11-24T12:10:09.611Z,100311.17
2022-11-24T12:12:59.904Z,100305.68
2022-11-24T12:15:46.639Z,100310.31
2022-11-24T12:18:57.636Z,100313.44
2022-11-24T12:22:07.785Z,100314.96
2022-11-24T12:25:28.546Z,100307.86
2022-11-24T12:28:31.334Z,100310.10
2022-11-24T12:31:51.617Z,100314.11
2022-11-24T12:34:59.033Z,100315.67
2022-11-24T12:38:47.814Z,100316.52
2022-11-24T12:41:54.784Z,100319.70
2022-11-24T12:45:01.349Z,100317.73
2022-11-24T12:47:49.190Z,100316.09
2022-11-24T12:50:31.156Z,100318.70
2022-11-24T12:53:32.332Z,100317.61
2022-11-24T12:56:13.441Z,100318.69
2022-11-24T12:59:13.038Z,100319.55
2022-11-24T13:02:03.350Z,100322.17
2022-11-24T13:05:00.369Z,100325.35
2022-11-24T13:07:47.677Z,100322.14
2022-11-24T13:13:28.700Z,100312.77
2022-11-24T13:16:20.693Z,100311.42
2022-11-24T13:19:02.773Z,100313.85
2022-11-24T13:21:40.861Z,100310.15
2022-11-24T13:24:20.206Z,100310.73
2022-11-24T13:26:54.085Z,100316.59
2022-11-24T13:29:34.404Z,100316.27
2022-11-24T13:32:22.975Z,100319.05
2022-11-24T13:34:55.338Z,100318.98
2022-11-24T13:37:35.489Z,100324.96
2022-11-24T13:40:13.956Z,100329.67
2022-11-24T13:42:57.956Z,100329.71
2022-11-24T13:45:47.376Z,100338.17
2022-11-24T13:48:19.859Z,100337.83
2022-11-24T13:50:54.688Z,100333.42
2022-11-24T13:53:43.625Z,100331.77
2022-11-24T13:56:12.337Z,100334.93
2022-11-24T13:58:45.275Z,100335.98
2022-11-24T14:01:22.463Z,100335.55
2022-11-24T14:04:28.553Z,100339.36
2022-11-24T14:06:52.667Z,100343.45
2022-11-24T14:09:37.126Z,100348.39
2022-11-24T14:12:26.877Z,100352.00
2022-11-24T14:15:23.150Z,100357.37
2022-11-24T14:17:51.842Z,100362.25
2022-11-24T14:20:27.069Z,100361.56
2022-11-24T14:22:55.796Z,100358.68
2022-11-24T14:25:31.824Z,100360.65
2022-11-24T14:28:00.837Z,100362.44
2022-11-24T14:30:29.726Z,100366.01
2022-11-24T14:33:01.891Z,100368.34
2022-11-24T14:35:36.658Z,100370.33
2022-11-24T14:38:06.772Z,100367.71
2022-11-24T14:40:50.212Z,100372.80
2022-11-24T14:43:27.700Z,100380.32
2022-11-24T14:46:06.640Z,100385.85
2022-11-24T14:48:53.577Z,100386.00
2022-11-24T14:51:27.159Z,100386.27
2022-11-24T14:54:00.700Z,100389.10
2022-11-24T14:56:35.360Z,100392.27
2022-11-24T14:59:20.670Z,100393.19
2022-11-24T15:01:49.465Z,100397.17
2022-11-24T15:07:27.572Z,100399.52
2022-11-24T15:10:02.852Z,100406.31
2022-11-24T15:12:48.585Z,100413.67
2022-11-24T15:15:24.187Z,100420.54
2022-11-24T15:18:00.447Z,100428.41
2022-11-24T15:20:46.155Z,100428.15
2022-11-24T15:23:23.719Z,100431.06
2022-11-24T15:25:57.603Z,100433.61
2022-11-24T15:28:26.546Z,100436.50
2022-11-24T15:31:02.382Z,100440.95
2022-11-24T15:33:31.707Z,100443.01
2022-11-24T15:36:01.014Z,100447.95
2022-11-24T15:38:29.726Z,100447.12
2022-11-24T15:41:01.181Z,100453.21
2022-11-24T15:43:32.647Z,100454.44
2022-11-24T15:46:03.799Z,100463.10
2022-11-24T15:48:33.237Z,100461.91
2022-11-24T15:51:05.833Z,100460.04
2022-11-24T15:53:39.676Z,100462.73
2022-11-24T15:56:15.581Z,100460.95
2022-11-24T15:58:44.218Z,100464.59
2022-11-24T16:01:13.002Z,100468.38
2022-11-24T16:03:49.452Z,100469.20
2022-11-24T16:06:25.294Z,100464.10
2022-11-24T16:08:54.759Z,100467.27
2022-11-24T16:11:23.522Z,100467.19
2022-11-24T16:13:54.252Z,100467.66
2022-11-24T16:16:25.399Z,100465.70
2022-11-24T16:18:54.284Z,100468.87
2022-11-24T16:21:23.538Z,100467.75
2022-11-24T16:23:52.298Z,100467.36
2022-11-24T16:28:08.091Z,100466.77
2022-11-24T16:30:36.708Z,100462.50
2022-11-24T16:33:06.936Z,100458.14
2022-11-24T16:35:35.671Z,100454.60
2022-11-24T16:38:04.373Z,100456.78
2022-11-24T16:40:33.086Z,100464.86
2022-11-24T16:43:01.749Z,100462.55
2022-11-24T16:45:30.507Z,100465.29
2022-11-24T16:48:01.580Z,100470.23
2022-11-24T16:50:30.266Z,100485.85
2022-11-24T16:52:59.013Z,100488.86
2022-11-24T16:55:27.799Z,100492.36
2022-11-24T16:57:56.940Z,100496.33
2022-11-24T17:00:25.839Z,100497.52
2022-11-24T17:02:54.637Z,100494.20
2022-11-24T17:05:23.500Z,100493.09
2022-11-24T17:07:52.325Z,100490.69
2022-11-24T17:10:21.528Z,100496.23
2022-11-24T17:12:50.272Z,100498.81
2022-11-24T17:15:32.956Z,100502.94
2022-11-24T17:18:24.355Z,100501.67
2022-11-24T17:20:52.037Z,100505.30
2022-11-24T17:23:20.634Z,100507.56
2022-11-24T17:25:49.358Z,100509.02
2022-11-24T17:28:18.390Z,100506.79
2022-11-24T17:30:47.470Z,100508.72
2022-11-24T17:33:16.230Z,100511.34
2022-11-24T17:35:45.045Z,100515.04
2022-11-24T17:38:14.126Z,100519.79
2022-11-24T17:40:48.303Z,100524.15
2022-11-24T17:43:17.007Z,100529.11
2022-11-24T17:45:54.011Z,100529.10
2022-11-24T17:48:23.965Z,100529.17
2022-11-24T17:51:11.155Z,100533.96
2022-11-24T17:53:42.145Z,100532.26
2022-11-24T17:56:22.065Z,100531.56
2022-11-24T17:58:56.838Z,100533.52
2022-11-24T18:01:28.770Z,100529.49
2022-11-24T18:03:58.515Z,100528.86
2022-11-24T18:06:29.124Z,100532.70
2022-11-24T18:08:58.441Z,100536.19
2022-11-24T18:11:32.418Z,100535.22
2022-11-24T18:14:04.271Z,100537.59
2022-11-24T18:16:34.757Z,100538.70
2022-11-24T18:19:10.953Z,100539.58
2022-11-24T18:21:41.790Z,100541.48
2022-11-24T18:24:12.674Z,100544.50
2022-11-24T18:26:42.365Z,100540.71
2022-11-24T18:29:12.049Z,100541.88
2022-11-24T18:31:41.026Z,100539.46
2022-11-24T18:34:09.717Z,100534.27
2022-11-24T18:36:38.462Z,100547.83
2022-11-24T18:39:09.345Z,100551.73
2022-11-24T18:41:39.913Z,100560.09
2022-11-24T18:44:09.134Z,100556.89
2022-11-24T18:46:38.357Z,100556.95
2022-11-24T18:49:07.712Z,100558.11
2022-11-24T18:51:36.683Z,100564.52
2022-11-24T18:54:06.047Z,100563.65
2022-11-24T18:56:34.767Z,100562.39
2022-11-24T18:59:03.610Z,100560.70
2022-11-24T19:01:32.672Z,100563.04
2022-11-24T19:04:03.443Z,100568.86
2022-11-24T19:06:38.316Z,100570.15
2022-11-24T19:09:18.653Z,100565.52
2022-11-24T19:11:47.825Z,100564.98
2022-11-24T19:14:19.345Z,100567.59
2022-11-24T19:16:48.484Z,100569.52
2022-11-24T19:19:17.618Z,100567.47
2022-11-24T19:21:46.416Z,100566.05
2022-11-24T19:24:15.091Z,100566.36
2022-11-24T19:26:43.828Z,100567.04
2022-11-24T19:29:12.973Z,100568.63
2022-11-24T19:31:41.674Z,100566.95
2022-11-24T19:34:10.507Z,100568.29
2022-11-24T19:36:40.867Z,100574.63
2022-11-24T19:39:15.899Z,100579.02
2022-11-24T19:41:45.112Z,100584.21
2022-11-24T19:44:14.394Z,100587.44
2022-11-24T19:46:43.038Z,100584.13
2022-11-24T19:49:12.040Z,100587.09
2022-11-24T19:51:41.031Z,100589.32
2022-11-24T19:54:13.655Z,100590.00
2022-11-24T19:56:42.547Z,100589.29
2022-11-24T19:59:15.270Z,100589.10
2022-11-24T20:01:44.128Z,100592.91
2022-11-24T20:04:15.191Z,100597.85
2022-11-24T20:06:47.844Z,100601.10
2022-11-24T20:09:18.485Z,100597.35
2022-11-24T20:11:48.831Z,100592.94
2022-11-24T20:14:23.362Z,100590.55
2022-11-24T20:16:52.090Z,100593.58
2022-11-24T20:19:20.808Z,100587.75
2022-11-24T20:21:50.607Z,100591.17
2022-11-24T20:24:23.571Z,100596.61
2022-11-24T20:26:58.432Z,100598.33
2022-11-24T20:29:29.360Z,100601.66
2022-11-24T20:31:58.348Z,100604.35
2022-11-24T20:34:28.678Z,100607.45
2022-11-24T20:36:57.469Z,100612.60
2022-11-24T20:39:28.771Z,100610.67
2022-11-24T20:41:58.378Z,100615.38
2022-11-24T20:44:28.043Z,100616.55
2022-11-24T20:47:00.086Z,100616.83
2022-11-24T20:49:29.002Z,100615.45
2022-11-24T20:51:57.733Z,100616.88
2022-11-24T20:54:26.675Z,100617.98
2022-11-24T20:56:56.297Z,100614.70
2022-11-24T20:59:26.209Z,100618.58
2022-11-24T21:01:56.209Z,100621.02
2022-11-24T21:04:27.449Z,100624.36
2022-11-24T21:06:57.063Z,100627.16
2022-11-24T21:09:27.506Z,100630.72
2022-11-24T21:11:56.704Z,100636.40
2022-11-24T21:14:25.597Z,100637.08
2022-11-24T21:16:54.569Z,100637.57
2022-11-24T21:19:23.578Z,100629.59
2022-11-24T21:21:52.475Z,100633.88
2022-11-24T21:24:23.919Z,100633.85
2022-11-24T21:26:53.158Z,100636.58
2022-11-24T21:29:23.843Z,100641.32
2022-11-24T21:31:52.909Z,100636.59
2022-11-24T21:34:22.044Z,100635.88
2022-11-24T21:36:51.265Z,100633.56
2022-11-24T21:39:20.063Z,100641.13
2022-11-24T21:41:49.240Z,100641.27
2022-11-24T21:44:18.156Z,100638.94
2022-11-24T21:46:52.581Z,100641.96
2022-11-24T21:49:23.071Z,100639.09
2022-11-24T21:51:56.104Z,100639.17
2022-11-24T21:54:25.300Z,100638.63
2022-11-24T21:56:54.886Z,100641.68
2022-11-24T21:59:23.775Z,100640.52
2022-11-24T22:01:53.327Z,100642.39
2022-11-24T22:04:22.387Z,100642.29
2022-11-24T22:06:53.905Z,100643.50
2022-11-24T22:09:23.121Z,100646.00
2022-11-24T22:11:53.765Z,100649.70
2022-11-24T22:14:23.065Z,100652.21
2022-11-24T22:16:52.513Z,100653.73
2022-11-24T22:19:22.075Z,100657.46
2022-11-24T22:21:51.158Z,100659.30
2022-11-24T22:24:25.792Z,100660.95
2022-11-24T22:26:56.519Z,100655.89
2022-11-24T22:29:25.618Z,100661.11
2022-11-24T22:31:55.374Z,100664.30
2022-11-24T22:34:24.527Z,100657.52
2022-11-24T22:36:54.217Z,100653.95
2022-11-24T22:39:23.651Z,100656.30
2022-11-24T22:41:54.167Z,100655.20
2022-11-24T22:44:23.388Z,100657.18
2022-11-24T22:46:52.591Z,100659.80
2022-11-24T22:57:21.225Z,100655.52
2022-11-24T22:59:50.213Z,100658.33
2022-11-24T23:02:19.519Z,100656.48
2022-11-24T23:04:48.706Z,100660.46
2022-11-24T23:07:17.746Z,100650.48
2022-11-24T23:09:47.974Z,100656.36
2022-11-24T23:12:17.034Z,100656.45
2022-11-24T23:14:46.161Z,100654.98
2022-11-24T23:17:15.313Z,100659.95
2022-11-24T23:19:44.407Z,100663.43
2022-11-24T23:22:13.452Z,100661.96
2022-11-24T23:24:42.596Z,100661.34
2022-11-24T23:27:11.606Z,100670.30
2022-11-24T23:29:40.691Z,100669.90
2022-11-24T23:32:09.689Z,100667.78
2022-11-24T23:34:38.630Z,100665.98
2022-11-24T23:37:07.685Z,100673.17
2022-11-24T23:39:36.575Z,100677.39
2022-11-24T23:42:05.981Z,100670.90
2022-11-24T23:44:35.599Z,100679.33
2022-11-24T23:47:05.181Z,100681.64
2022-11-24T23:49:34.186Z,100679.37
2022-11-24T23:52:03.066Z,100686.19
2022-11-24T23:54:31.983Z,100687.83
2022-11-24T23:57:00.765Z,100692.51
2022-11-24T23:59:29.509Z,100693.02
